Airfield :
LOGIN :

Register | Disclaimer

   EN    FR    IT 

 










Legend :    VFR   Marginal VFR   IFR   Intensive IFR   Very Intensive IFR
Visi :
Ceiling :
>= 8 km
>= 3000ft
5 to 8 km
1000 to 3000 ft
1500m to 5 km
500 to 1000 ft
800 to 1500m
200 to 500 ft
< 800m
< 200 ft
Symbols :   Thunderstorms  Fog  Heavy snow  Heavy precipitations  Wind > 20 kt
SIGMETs :     Misc.  Thunderstorms  Icing  Turbulence  Mountain Waves  Volcanic Ashes






- Airport Elevation : 453 ft
- IATA code : SBK


LFRT - St Brieuc Armor

CURRENT METAR :
  • 041200Z AUTO 33007KT 270V010 9999 BKN031 18/10 Q1024

EXPIRED METARs :
  • 041130Z AUTO 32006KT 290V360 9999 OVC030 17/11 Q1025
  • 041100Z AUTO 30007KT 260V020 9999 OVC029 16/09 Q1025
  • 041030Z AUTO 33006KT 280V020 9999 OVC028 16/09 Q1025
  • 041000Z AUTO 31005KT 270V360 9999 OVC028 16/09 Q1025
  • 040930Z AUTO 33005KT 290V350 9999 FEW021 OVC028 15/10 Q1025
  • 040900Z AUTO 34004KT 310V020 9999 OVC027 15/10 Q1024

Expired Forecast.



MET'MAP, your aeronautical weather chart ! - Copyright ORBIFLY December 2007 - Disclaimer

ORBIFLY MET'MAP TEAM :

Programming & Development : Alexandra Zaïnal
Original concept : Baudouin d'Aumeries
Technical & hardware support : Manuel Goepfert
Assistance : Marc-Olivier Méhu




SOURCES & CREDITS :

   NOAA